createdAt,value
2022-08-14T00:01:03.976Z,12.88
2022-08-14T00:03:40.403Z,14.02
2022-08-14T00:06:25.555Z,14.23
2022-08-14T00:08:58.994Z,13.60
2022-08-14T00:11:28.775Z,13.45
2022-08-14T00:14:01.654Z,14.90
2022-08-14T00:16:41.499Z,16.17
2022-08-14T00:19:19.258Z,14.50
2022-08-14T00:21:52.493Z,14.73
2022-08-14T00:24:28.548Z,14.65
2022-08-14T00:27:02.283Z,15.90
2022-08-14T00:29:40.373Z,14.30
2022-08-14T00:32:50.284Z,14.25
2022-08-14T00:37:24.235Z,14.75
2022-08-14T00:39:51.173Z,14.80
2022-08-14T00:42:52.439Z,13.18
2022-08-14T00:45:11.482Z,17.75
2022-08-14T00:47:45.349Z,14.35
2022-08-14T00:50:17.752Z,13.88
2022-08-14T00:52:50.809Z,16.83
2022-08-14T00:55:19.932Z,16.23
2022-08-14T00:58:06.830Z,16.77
2022-08-14T01:00:43.017Z,15.05
2022-08-14T01:03:20.326Z,14.43
2022-08-14T01:05:52.151Z,17.98
2022-08-14T01:08:58.314Z,17.85
2022-08-14T01:11:08.353Z,14.38
2022-08-14T01:13:42.950Z,13.82
2022-08-14T01:16:15.649Z,13.68
2022-08-14T01:19:05.302Z,14.75
2022-08-14T01:21:37.094Z,17.05
2022-08-14T01:24:09.779Z,14.00
2022-08-14T01:26:39.093Z,16.23
2022-08-14T01:29:07.085Z,13.90
2022-08-14T01:31:42.962Z,13.88
2022-08-14T01:35:17.492Z,14.07
2022-08-14T01:36:56.243Z,13.40
2022-08-14T01:39:22.916Z,15.60
2022-08-14T01:41:56.373Z,14.15
2022-08-14T01:44:33.056Z,15.20
2022-08-14T01:47:21.724Z,16.38
2022-08-14T01:49:59.600Z,15.70
2022-08-14T01:52:34.149Z,13.45
2022-08-14T01:55:15.328Z,15.52
2022-08-14T01:58:01.331Z,13.43
2022-08-14T02:00:36.320Z,13.98
2022-08-14T02:03:05.922Z,13.50
2022-08-14T02:05:38.555Z,13.15
2022-08-14T02:08:09.205Z,13.57
2022-08-14T02:10:46.543Z,16.10
2022-08-14T02:13:16.180Z,14.23
2022-08-14T02:15:43.939Z,14.65
2022-08-14T02:18:11.795Z,13.77
2022-08-14T02:20:42.099Z,14.10
2022-08-14T02:23:08.984Z,14.20
2022-08-14T02:25:36.545Z,14.65
2022-08-14T02:28:24.818Z,15.13
2022-08-14T02:30:52.387Z,15.23
2022-08-14T02:33:23.357Z,13.25
2022-08-14T02:35:53.392Z,14.30
2022-08-14T02:38:29.645Z,15.20
2022-08-14T02:40:58.618Z,15.57
2022-08-14T02:43:36.683Z,15.07
2022-08-14T02:46:03.511Z,17.80
2022-08-14T02:49:04.146Z,15.88
2022-08-14T02:51:23.290Z,17.35
2022-08-14T02:53:51.891Z,16.15
2022-08-14T02:56:30.335Z,18.27
2022-08-14T02:59:09.485Z,16.92
2022-08-14T03:01:43.538Z,15.52
2022-08-14T03:04:17.575Z,16.27
2022-08-14T03:06:57.606Z,17.20
2022-08-14T03:09:41.907Z,16.00
2022-08-14T03:12:27.235Z,15.60
2022-08-14T03:15:08.981Z,18.20
2022-08-14T03:17:56.900Z,15.55
2022-08-14T03:20:28.917Z,17.17
2022-08-14T03:23:00.118Z,15.77
2022-08-14T03:25:27.115Z,15.65
2022-08-14T03:27:58.259Z,15.98
2022-08-14T03:30:37.170Z,20.10
2022-08-14T03:33:08.804Z,21.42
2022-08-14T03:35:40.345Z,21.02
2022-08-14T03:39:15.789Z,19.02
2022-08-14T03:41:20.382Z,18.73
2022-08-14T03:44:00.948Z,19.25
2022-08-14T03:46:52.526Z,20.17
2022-08-14T03:49:24.486Z,21.23
2022-08-14T03:51:55.589Z,21.15
2022-08-14T03:54:24.530Z,21.38
2022-08-14T03:56:51.273Z,24.15
2022-08-14T03:59:19.570Z,21.98
2022-08-14T04:01:54.078Z,20.98
2022-08-14T04:04:27.766Z,22.38
2022-08-14T04:06:57.935Z,20.23
2022-08-14T04:09:26.969Z,21.65
2022-08-14T04:11:56.036Z,18.15
2022-08-14T04:14:23.623Z,20.70
2022-08-14T04:19:20.552Z,15.68
2022-08-14T04:22:02.965Z,14.45
2022-08-14T04:24:39.089Z,18.88
2022-08-14T04:28:04.270Z,19.73
2022-08-14T04:30:32.820Z,17.38
2022-08-14T04:33:07.314Z,14.23
2022-08-14T04:35:56.915Z,13.38
2022-08-14T04:38:42.149Z,13.32
2022-08-14T04:41:30.332Z,11.48
2022-08-14T04:43:57.245Z,16.77
2022-08-14T04:46:57.413Z,18.67
2022-08-14T04:49:11.660Z,21.23
2022-08-14T04:51:55.421Z,21.42
2022-08-14T04:54:27.015Z,19.42
2022-08-14T04:56:57.239Z,20.55
2022-08-14T04:59:25.347Z,19.80
2022-08-14T05:01:56.979Z,22.27
2022-08-14T05:04:25.130Z,20.73
2022-08-14T05:06:55.394Z,19.40
2022-08-14T05:09:29.138Z,18.30
2022-08-14T05:12:00.682Z,16.73
2022-08-14T05:14:46.057Z,20.33
2022-08-14T05:17:19.666Z,15.98
2022-08-14T05:21:54.234Z,16.92
2022-08-14T05:22:34.684Z,14.15
2022-08-14T05:25:04.821Z,13.55
2022-08-14T05:27:31.453Z,12.65
2022-08-14T05:29:58.121Z,13.32
2022-08-14T05:32:27.140Z,12.48
2022-08-14T05:34:58.000Z,12.25
2022-08-14T05:37:25.190Z,11.25
2022-08-14T05:39:53.134Z,11.63
2022-08-14T05:42:22.252Z,12.80
2022-08-14T05:44:55.549Z,13.52
2022-08-14T05:47:22.709Z,14.68
2022-08-14T05:49:49.999Z,14.85
2022-08-14T05:52:18.297Z,14.07
2022-08-14T05:54:45.058Z,11.57
2022-08-14T05:57:11.619Z,11.48
2022-08-14T05:59:40.133Z,14.93
2022-08-14T06:02:11.016Z,10.57
2022-08-14T06:04:39.029Z,10.77
2022-08-14T06:07:06.498Z,11.45
2022-08-14T06:12:11.880Z,9.95
2022-08-14T06:14:39.401Z,10.80
2022-08-14T06:17:06.840Z,10.10
2022-08-14T06:21:59.948Z,9.07
2022-08-14T06:24:30.316Z,10.48
2022-08-14T06:35:09.852Z,8.75
2022-08-14T06:36:26.590Z,8.98
2022-08-14T06:38:54.360Z,8.05
2022-08-14T06:41:57.048Z,8.02
2022-08-14T06:44:09.714Z,6.97
2022-08-14T06:46:37.750Z,6.90
2022-08-14T06:49:04.535Z,6.90
2022-08-14T06:54:12.654Z,5.93
2022-08-14T06:56:40.207Z,5.20
2022-08-14T06:59:15.969Z,10.00
2022-08-14T07:02:05.547Z,7.28
2022-08-14T07:04:57.946Z,6.13
2022-08-14T07:07:24.870Z,6.18
2022-08-14T07:09:55.523Z,6.72
2022-08-14T07:12:52.243Z,7.18
2022-08-14T07:15:09.590Z,6.50
2022-08-14T07:17:47.158Z,6.30
2022-08-14T07:20:30.581Z,5.53
2022-08-14T07:23:07.936Z,9.27
2022-08-14T07:28:20.735Z,5.00
2022-08-14T07:30:51.485Z,5.88
2022-08-14T07:33:20.856Z,4.35
2022-08-14T07:35:58.529Z,5.00
2022-08-14T07:38:34.047Z,4.22
2022-08-14T07:41:12.006Z,4.40
2022-08-14T07:43:42.503Z,4.30
2022-08-14T07:46:09.785Z,5.07
2022-08-14T07:51:10.861Z,4.22
2022-08-14T07:53:40.666Z,7.20
2022-08-14T07:56:44.422Z,8.38
2022-08-14T07:58:58.572Z,5.85
2022-08-14T08:01:26.350Z,4.40
2022-08-14T08:03:59.954Z,8.70
2022-08-14T08:06:28.285Z,6.35
2022-08-14T08:09:01.075Z,6.43
2022-08-14T08:11:35.045Z,6.60
2022-08-14T08:14:17.247Z,6.45
2022-08-14T08:16:47.427Z,4.93
2022-08-14T08:19:19.228Z,3.70
2022-08-14T08:21:47.111Z,3.70
2022-08-14T08:24:19.746Z,4.45
2022-08-14T08:26:46.832Z,3.83
2022-08-14T08:29:22.382Z,3.70
2022-08-14T08:31:55.101Z,4.05
2022-08-14T08:34:23.713Z,4.22
